sensor_id;sensor_type;location;lat;lon;timestamp;P1;durP1;ratioP1;P2;durP2;ratioP2
23068;SDS011;11702;50.856;4.348;2022-10-31T00:01:21;15.38;;;7.68;;
23068;SDS011;11702;50.856;4.348;2022-10-31T00:03:49;13.23;;;7.13;;
23068;SDS011;11702;50.856;4.348;2022-10-31T00:06:15;15.43;;;6.90;;
23068;SDS011;11702;50.856;4.348;2022-10-31T00:08:53;11.73;;;7.00;;
23068;SDS011;11702;50.856;4.348;2022-10-31T00:11:20;14.75;;;7.28;;
23068;SDS011;11702;50.856;4.348;2022-10-31T00:13:46;14.15;;;7.95;;
23068;SDS011;11702;50.856;4.348;2022-10-31T00:16:13;13.88;;;7.60;;
23068;SDS011;11702;50.856;4.348;2022-10-31T00:18:43;15.20;;;8.05;;
23068;SDS011;11702;50.856;4.348;2022-10-31T00:21:09;14.90;;;7.22;;
23068;SDS011;11702;50.856;4.348;2022-10-31T00:23:36;15.30;;;7.78;;
23068;SDS011;11702;50.856;4.348;2022-10-31T00:26:02;16.55;;;7.90;;
23068;SDS011;11702;50.856;4.348;2022-10-31T00:28:28;19.63;;;7.72;;
23068;SDS011;11702;50.856;4.348;2022-10-31T00:30:58;13.55;;;7.53;;
23068;SDS011;11702;50.856;4.348;2022-10-31T00:33:25;13.02;;;6.68;;
23068;SDS011;11702;50.856;4.348;2022-10-31T00:35:50;22.60;;;8.15;;
23068;SDS011;11702;50.856;4.348;2022-10-31T00:38:16;17.48;;;8.48;;
23068;SDS011;11702;50.856;4.348;2022-10-31T00:40:42;19.73;;;8.48;;
23068;SDS011;11702;50.856;4.348;2022-10-31T00:43:07;22.67;;;8.13;;
23068;SDS011;11702;50.856;4.348;2022-10-31T00:45:33;11.25;;;7.18;;
23068;SDS011;11702;50.856;4.348;2022-10-31T00:47:58;16.48;;;8.07;;
23068;SDS011;11702;50.856;4.348;2022-10-31T00:50:24;17.55;;;7.75;;
23068;SDS011;11702;50.856;4.348;2022-10-31T00:52:49;15.55;;;7.65;;
23068;SDS011;11702;50.856;4.348;2022-10-31T00:55:15;17.85;;;7.75;;
23068;SDS011;11702;50.856;4.348;2022-10-31T00:57:41;18.23;;;8.70;;
23068;SDS011;11702;50.856;4.348;2022-10-31T01:00:07;12.23;;;7.53;;
23068;SDS011;11702;50.856;4.348;2022-10-31T01:02:33;12.90;;;7.22;;
23068;SDS011;11702;50.856;4.348;2022-10-31T01:04:59;17.50;;;8.55;;
23068;SDS011;11702;50.856;4.348;2022-10-31T01:07:24;18.88;;;8.30;;
23068;SDS011;11702;50.856;4.348;2022-10-31T01:09:50;19.05;;;9.15;;
23068;SDS011;11702;50.856;4.348;2022-10-31T01:12:16;11.75;;;8.15;;
23068;SDS011;11702;50.856;4.348;2022-10-31T01:14:42;18.38;;;8.00;;
23068;SDS011;11702;50.856;4.348;2022-10-31T01:17:11;13.18;;;8.02;;
23068;SDS011;11702;50.856;4.348;2022-10-31T01:19:38;14.75;;;7.47;;
23068;SDS011;11702;50.856;4.348;2022-10-31T01:22:04;14.65;;;7.57;;
23068;SDS011;11702;50.856;4.348;2022-10-31T01:24:30;11.77;;;6.78;;
23068;SDS011;11702;50.856;4.348;2022-10-31T01:26:55;12.80;;;7.13;;
23068;SDS011;11702;50.856;4.348;2022-10-31T01:29:21;12.00;;;7.15;;
23068;SDS011;11702;50.856;4.348;2022-10-31T01:31:46;10.80;;;7.00;;
23068;SDS011;11702;50.856;4.348;2022-10-31T01:34:12;11.27;;;6.43;;
23068;SDS011;11702;50.856;4.348;2022-10-31T01:36:41;15.57;;;7.50;;
23068;SDS011;11702;50.856;4.348;2022-10-31T01:39:12;13.30;;;7.13;;
23068;SDS011;11702;50.856;4.348;2022-10-31T01:41:40;14.27;;;7.10;;
23068;SDS011;11702;50.856;4.348;2022-10-31T01:46:56;13.85;;;7.15;;
23068;SDS011;11702;50.856;4.348;2022-10-31T01:52:06;11.75;;;7.00;;
23068;SDS011;11702;50.856;4.348;2022-10-31T01:54:35;15.07;;;7.10;;
23068;SDS011;11702;50.856;4.348;2022-10-31T01:57:05;13.23;;;7.22;;
23068;SDS011;11702;50.856;4.348;2022-10-31T01:59:35;15.35;;;7.25;;
23068;SDS011;11702;50.856;4.348;2022-10-31T02:02:07;14.23;;;8.07;;
23068;SDS011;11702;50.856;4.348;2022-10-31T02:04:33;11.88;;;7.35;;
23068;SDS011;11702;50.856;4.348;2022-10-31T02:09:29;16.50;;;8.50;;
23068;SDS011;11702;50.856;4.348;2022-10-31T02:11:58;15.73;;;7.93;;
23068;SDS011;11702;50.856;4.348;2022-10-31T02:14:25;14.02;;;7.60;;
23068;SDS011;11702;50.856;4.348;2022-10-31T02:16:54;18.00;;;8.30;;
23068;SDS011;11702;50.856;4.348;2022-10-31T02:22:20;15.57;;;7.88;;
23068;SDS011;11702;50.856;4.348;2022-10-31T02:24:58;17.00;;;8.32;;
23068;SDS011;11702;50.856;4.348;2022-10-31T02:41:12;16.35;;;8.73;;
23068;SDS011;11702;50.856;4.348;2022-10-31T02:46:27;19.70;;;8.32;;
23068;SDS011;11702;50.856;4.348;2022-10-31T02:49:24;14.60;;;8.98;;
23068;SDS011;11702;50.856;4.348;2022-10-31T02:51:51;17.50;;;9.05;;
23068;SDS011;11702;50.856;4.348;2022-10-31T02:54:27;21.27;;;9.32;;
23068;SDS011;11702;50.856;4.348;2022-10-31T02:57:04;14.18;;;9.68;;
23068;SDS011;11702;50.856;4.348;2022-10-31T02:59:32;17.20;;;8.60;;
23068;SDS011;11702;50.856;4.348;2022-10-31T03:02:09;19.58;;;8.80;;
23068;SDS011;11702;50.856;4.348;2022-10-31T03:07:54;13.48;;;9.05;;
23068;SDS011;11702;50.856;4.348;2022-10-31T03:10:35;13.60;;;7.88;;
23068;SDS011;11702;50.856;4.348;2022-10-31T03:13:24;17.92;;;9.13;;
23068;SDS011;11702;50.856;4.348;2022-10-31T03:19:08;14.27;;;9.13;;
23068;SDS011;11702;50.856;4.348;2022-10-31T03:21:47;14.55;;;9.02;;
23068;SDS011;11702;50.856;4.348;2022-10-31T03:24:20;20.55;;;9.38;;
23068;SDS011;11702;50.856;4.348;2022-10-31T03:26:50;14.73;;;9.02;;
23068;SDS011;11702;50.856;4.348;2022-10-31T03:31:54;15.57;;;8.95;;
23068;SDS011;11702;50.856;4.348;2022-10-31T03:34:25;19.80;;;8.93;;
23068;SDS011;11702;50.856;4.348;2022-10-31T03:36:53;18.98;;;9.52;;
23068;SDS011;11702;50.856;4.348;2022-10-31T03:39:22;16.75;;;9.90;;
23068;SDS011;11702;50.856;4.348;2022-10-31T03:41:59;19.98;;;9.75;;
23068;SDS011;11702;50.856;4.348;2022-10-31T03:44:30;18.60;;;9.40;;
23068;SDS011;11702;50.856;4.348;2022-10-31T03:46:58;18.58;;;9.63;;
23068;SDS011;11702;50.856;4.348;2022-10-31T03:49:24;20.65;;;9.25;;
23068;SDS011;11702;50.856;4.348;2022-10-31T03:51:58;22.05;;;10.00;;
23068;SDS011;11702;50.856;4.348;2022-10-31T03:57:18;19.42;;;10.63;;
23068;SDS011;11702;50.856;4.348;2022-10-31T04:00:03;25.15;;;10.98;;
23068;SDS011;11702;50.856;4.348;2022-10-31T04:02:31;20.63;;;10.43;;
23068;SDS011;11702;50.856;4.348;2022-10-31T04:04:59;16.05;;;10.25;;
23068;SDS011;11702;50.856;4.348;2022-10-31T04:07:27;19.90;;;9.95;;
23068;SDS011;11702;50.856;4.348;2022-10-31T04:09:55;18.17;;;10.20;;
23068;SDS011;11702;50.856;4.348;2022-10-31T04:12:22;17.75;;;11.05;;
23068;SDS011;11702;50.856;4.348;2022-10-31T04:14:50;21.98;;;9.82;;
23068;SDS011;11702;50.856;4.348;2022-10-31T04:17:17;18.75;;;10.02;;
23068;SDS011;11702;50.856;4.348;2022-10-31T04:19:45;15.93;;;9.35;;
23068;SDS011;11702;50.856;4.348;2022-10-31T04:22:10;20.88;;;11.45;;
23068;SDS011;11702;50.856;4.348;2022-10-31T04:24:37;17.25;;;9.95;;
23068;SDS011;11702;50.856;4.348;2022-10-31T04:27:04;18.35;;;10.32;;
23068;SDS011;11702;50.856;4.348;2022-10-31T04:29:30;18.73;;;11.68;;
23068;SDS011;11702;50.856;4.348;2022-10-31T04:31:55;18.88;;;10.65;;
23068;SDS011;11702;50.856;4.348;2022-10-31T04:34:21;22.98;;;11.02;;
23068;SDS011;11702;50.856;4.348;2022-10-31T04:36:46;17.83;;;10.50;;
23068;SDS011;11702;50.856;4.348;2022-10-31T04:39:12;14.73;;;10.63;;
23068;SDS011;11702;50.856;4.348;2022-10-31T04:41:38;17.67;;;10.93;;
23068;SDS011;11702;50.856;4.348;2022-10-31T04:44:03;21.35;;;10.85;;
23068;SDS011;11702;50.856;4.348;2022-10-31T04:46:29;22.02;;;11.18;;
23068;SDS011;11702;50.856;4.348;2022-10-31T04:48:55;25.48;;;12.55;;
23068;SDS011;11702;50.856;4.348;2022-10-31T04:51:21;28.75;;;12.25;;
23068;SDS011;11702;50.856;4.348;2022-10-31T04:53:46;27.17;;;11.85;;
23068;SDS011;11702;50.856;4.348;2022-10-31T04:56:12;32.50;;;12.82;;
23068;SDS011;11702;50.856;4.348;2022-10-31T04:58:38;33.63;;;12.68;;
23068;SDS011;11702;50.856;4.348;2022-10-31T05:01:03;31.70;;;11.15;;
23068;SDS011;11702;50.856;4.348;2022-10-31T05:03:29;31.02;;;12.73;;
23068;SDS011;11702;50.856;4.348;2022-10-31T05:05:54;27.10;;;10.43;;
23068;SDS011;11702;50.856;4.348;2022-10-31T05:08:23;31.00;;;11.88;;
23068;SDS011;11702;50.856;4.348;2022-10-31T05:10:48;22.42;;;10.38;;
23068;SDS011;11702;50.856;4.348;2022-10-31T05:13:14;23.33;;;10.40;;
23068;SDS011;11702;50.856;4.348;2022-10-31T05:15:40;22.80;;;9.90;;
23068;SDS011;11702;50.856;4.348;2022-10-31T05:18:06;25.75;;;10.68;;
23068;SDS011;11702;50.856;4.348;2022-10-31T05:20:32;20.88;;;10.55;;
23068;SDS011;11702;50.856;4.348;2022-10-31T05:22:58;22.05;;;10.20;;
23068;SDS011;11702;50.856;4.348;2022-10-31T05:25:25;23.58;;;10.63;;
23068;SDS011;11702;50.856;4.348;2022-10-31T05:27:52;20.02;;;11.05;;
23068;SDS011;11702;50.856;4.348;2022-10-31T05:30:20;23.67;;;11.82;;
23068;SDS011;11702;50.856;4.348;2022-10-31T05:32:48;20.00;;;10.82;;
23068;SDS011;11702;50.856;4.348;2022-10-31T05:35:16;19.98;;;11.82;;
23068;SDS011;11702;50.856;4.348;2022-10-31T05:37:43;28.30;;;12.88;;
23068;SDS011;11702;50.856;4.348;2022-10-31T05:40:09;23.83;;;12.45;;
23068;SDS011;11702;50.856;4.348;2022-10-31T05:42:37;27.77;;;12.95;;
23068;SDS011;11702;50.856;4.348;2022-10-31T05:45:03;29.85;;;12.70;;
23068;SDS011;11702;50.856;4.348;2022-10-31T05:47:29;24.45;;;12.27;;
23068;SDS011;11702;50.856;4.348;2022-10-31T05:49:55;21.63;;;12.23;;
23068;SDS011;11702;50.856;4.348;2022-10-31T05:52:21;21.63;;;12.07;;
23068;SDS011;11702;50.856;4.348;2022-10-31T05:54:46;23.60;;;11.38;;
23068;SDS011;11702;50.856;4.348;2022-10-31T05:57:12;19.40;;;11.50;;
23068;SDS011;11702;50.856;4.348;2022-10-31T05:59:38;24.20;;;12.30;;
23068;SDS011;11702;50.856;4.348;2022-10-31T06:02:03;26.08;;;11.85;;
23068;SDS011;11702;50.856;4.348;2022-10-31T06:04:29;20.70;;;11.65;;
23068;SDS011;11702;50.856;4.348;2022-10-31T06:06:56;22.77;;;12.27;;
23068;SDS011;11702;50.856;4.348;2022-10-31T06:09:21;19.95;;;11.70;;
23068;SDS011;11702;50.856;4.348;2022-10-31T06:11:47;22.73;;;11.25;;
23068;SDS011;11702;50.856;4.348;2022-10-31T06:14:12;19.48;;;11.25;;
23068;SDS011;11702;50.856;4.348;2022-10-31T06:16:38;18.98;;;10.02;;
23068;SDS011;11702;50.856;4.348;2022-10-31T06:19:04;20.55;;;11.50;;
23068;SDS011;11702;50.856;4.348;2022-10-31T06:21:29;23.20;;;11.30;;
23068;SDS011;11702;50.856;4.348;2022-10-31T06:23:55;21.10;;;11.55;;
23068;SDS011;11702;50.856;4.348;2022-10-31T06:26:21;23.33;;;11.07;;
23068;SDS011;11702;50.856;4.348;2022-10-31T06:28:46;22.40;;;11.13;;
23068;SDS011;11702;50.856;4.348;2022-10-31T06:31:12;21.08;;;12.15;;
23068;SDS011;11702;50.856;4.348;2022-10-31T06:33:37;25.65;;;10.70;;
23068;SDS011;11702;50.856;4.348;2022-10-31T06:36:05;22.80;;;10.75;;
23068;SDS011;11702;50.856;4.348;2022-10-31T06:38:31;22.67;;;10.95;;
23068;SDS011;11702;50.856;4.348;2022-10-31T06:40:57;20.77;;;11.10;;
23068;SDS011;11702;50.856;4.348;2022-10-31T06:43:23;23.73;;;11.13;;
23068;SDS011;11702;50.856;4.348;2022-10-31T06:45:48;22.92;;;10.70;;
23068;SDS011;11702;50.856;4.348;2022-10-31T06:48:14;18.73;;;10.32;;
23068;SDS011;11702;50.856;4.348;2022-10-31T06:50:39;21.23;;;10.38;;
23068;SDS011;11702;50.856;4.348;2022-10-31T06:53:05;20.00;;;9.98;;
23068;SDS011;11702;50.856;4.348;2022-10-31T06:55:31;19.88;;;9.75;;
23068;SDS011;11702;50.856;4.348;2022-10-31T06:58:00;17.25;;;9.07;;
23068;SDS011;11702;50.856;4.348;2022-10-31T07:00:27;22.13;;;10.68;;
23068;SDS011;11702;50.856;4.348;2022-10-31T07:03:00;20.85;;;10.38;;
23068;SDS011;11702;50.856;4.348;2022-10-31T07:05:28;19.25;;;9.57;;
23068;SDS011;11702;50.856;4.348;2022-10-31T07:07:55;22.38;;;11.88;;
23068;SDS011;11702;50.856;4.348;2022-10-31T07:10:22;21.67;;;12.05;;
23068;SDS011;11702;50.856;4.348;2022-10-31T07:12:57;24.27;;;11.38;;
23068;SDS011;11702;50.856;4.348;2022-10-31T07:15:24;19.50;;;10.88;;
23068;SDS011;11702;50.856;4.348;2022-10-31T07:17:50;19.27;;;9.95;;
23068;SDS011;11702;50.856;4.348;2022-10-31T07:20:16;18.10;;;10.65;;
23068;SDS011;11702;50.856;4.348;2022-10-31T07:22:42;18.33;;;9.88;;
23068;SDS011;11702;50.856;4.348;2022-10-31T07:25:09;19.58;;;9.88;;
23068;SDS011;11702;50.856;4.348;2022-10-31T07:27:36;20.67;;;10.57;;
23068;SDS011;11702;50.856;4.348;2022-10-31T07:30:03;18.52;;;10.07;;
23068;SDS011;11702;50.856;4.348;2022-10-31T07:32:37;17.15;;;10.05;;
23068;SDS011;11702;50.856;4.348;2022-10-31T07:35:07;20.45;;;9.30;;
23068;SDS011;11702;50.856;4.348;2022-10-31T07:37:34;19.10;;;11.43;;
23068;SDS011;11702;50.856;4.348;2022-10-31T07:39:59;21.00;;;11.52;;
23068;SDS011;11702;50.856;4.348;2022-10-31T07:42:25;22.67;;;10.43;;
23068;SDS011;11702;50.856;4.348;2022-10-31T07:44:51;16.23;;;10.57;;
23068;SDS011;11702;50.856;4.348;2022-10-31T07:47:16;18.17;;;11.25;;
23068;SDS011;11702;50.856;4.348;2022-10-31T07:49:42;16.00;;;9.73;;
23068;SDS011;11702;50.856;4.348;2022-10-31T07:52:07;15.48;;;11.05;;
23068;SDS011;11702;50.856;4.348;2022-10-31T07:54:33;17.30;;;10.05;;
23068;SDS011;11702;50.856;4.348;2022-10-31T07:56:58;21.10;;;9.95;;
23068;SDS011;11702;50.856;4.348;2022-10-31T07:59:24;18.65;;;10.10;;
23068;SDS011;11702;50.856;4.348;2022-10-31T08:01:50;21.48;;;10.05;;
23068;SDS011;11702;50.856;4.348;2022-10-31T08:04:16;15.63;;;9.07;;
23068;SDS011;11702;50.856;4.348;2022-10-31T08:06:41;13.30;;;9.48;;
23068;SDS011;11702;50.856;4.348;2022-10-31T08:09:07;9.15;;;7.30;;
23068;SDS011;11702;50.856;4.348;2022-10-31T08:11:33;15.40;;;7.78;;
23068;SDS011;11702;50.856;4.348;2022-10-31T08:13:58;16.45;;;8.88;;
23068;SDS011;11702;50.856;4.348;2022-10-31T08:16:24;16.73;;;9.82;;
23068;SDS011;11702;50.856;4.348;2022-10-31T08:18:49;14.90;;;8.75;;
23068;SDS011;11702;50.856;4.348;2022-10-31T08:21:15;18.30;;;9.45;;
23068;SDS011;11702;50.856;4.348;2022-10-31T08:23:41;16.55;;;9.38;;
23068;SDS011;11702;50.856;4.348;2022-10-31T08:26:06;13.48;;;8.63;;
23068;SDS011;11702;50.856;4.348;2022-10-31T08:28:32;16.63;;;8.25;;
23068;SDS011;11702;50.856;4.348;2022-10-31T08:30:58;13.73;;;8.68;;
23068;SDS011;11702;50.856;4.348;2022-10-31T08:33:23;14.57;;;8.35;;
23068;SDS011;11702;50.856;4.348;2022-10-31T08:35:49;14.80;;;7.93;;
23068;SDS011;11702;50.856;4.348;2022-10-31T08:38:15;16.33;;;8.10;;
23068;SDS011;11702;50.856;4.348;2022-10-31T08:40:41;15.35;;;8.40;;
23068;SDS011;11702;50.856;4.348;2022-10-31T08:43:11;16.67;;;9.10;;
23068;SDS011;11702;50.856;4.348;2022-10-31T08:45:38;19.20;;;9.15;;
23068;SDS011;11702;50.856;4.348;2022-10-31T08:48:05;16.83;;;9.63;;
23068;SDS011;11702;50.856;4.348;2022-10-31T08:50:33;15.98;;;8.98;;
23068;SDS011;11702;50.856;4.348;2022-10-31T08:53:03;16.45;;;10.20;;
23068;SDS011;11702;50.856;4.348;2022-10-31T08:55:31;17.90;;;9.35;;
23068;SDS011;11702;50.856;4.348;2022-10-31T08:57:59;19.77;;;9.45;;
23068;SDS011;11702;50.856;4.348;2022-10-31T09:00:24;17.92;;;9.73;;
23068;SDS011;11702;50.856;4.348;2022-10-31T09:02:56;16.95;;;9.00;;
23068;SDS011;11702;50.856;4.348;2022-10-31T09:05:26;11.65;;;7.22;;
23068;SDS011;11702;50.856;4.348;2022-10-31T09:07:55;16.23;;;8.07;;
23068;SDS011;11702;50.856;4.348;2022-10-31T09:10:25;8.20;;;5.80;;
23068;SDS011;11702;50.856;4.348;2022-10-31T09:13:10;12.98;;;5.90;;
23068;SDS011;11702;50.856;4.348;2022-10-31T09:15:42;10.73;;;5.30;;
23068;SDS011;11702;50.856;4.348;2022-10-31T09:18:09;11.38;;;5.38;;
23068;SDS011;11702;50.856;4.348;2022-10-31T09:20:36;10.68;;;6.38;;
23068;SDS011;11702;50.856;4.348;2022-10-31T09:23:04;11.52;;;6.97;;
23068;SDS011;11702;50.856;4.348;2022-10-31T09:25:32;11.65;;;6.55;;
23068;SDS011;11702;50.856;4.348;2022-10-31T09:27:59;13.60;;;6.53;;
23068;SDS011;11702;50.856;4.348;2022-10-31T09:30:26;11.45;;;6.28;;
23068;SDS011;11702;50.856;4.348;2022-10-31T09:32:57;12.45;;;6.30;;
23068;SDS011;11702;50.856;4.348;2022-10-31T09:35:23;11.20;;;6.63;;
23068;SDS011;11702;50.856;4.348;2022-10-31T09:38:00;11.55;;;5.97;;
23068;SDS011;11702;50.856;4.348;2022-10-31T09:51:30;11.70;;;6.05;;
23068;SDS011;11702;50.856;4.348;2022-10-31T09:54:06;13.48;;;6.13;;
23068;SDS011;11702;50.856;4.348;2022-10-31T09:56:35;12.15;;;5.43;;
23068;SDS011;11702;50.856;4.348;2022-10-31T09:59:03;13.02;;;6.07;;
23068;SDS011;11702;50.856;4.348;2022-10-31T10:04:38;18.95;;;6.57;;
23068;SDS011;11702;50.856;4.348;2022-10-31T10:07:21;12.67;;;6.10;;
23068;SDS011;11702;50.856;4.348;2022-10-31T10:10:00;15.23;;;6.88;;
23068;SDS011;11702;50.856;4.348;2022-10-31T10:15:57;10.63;;;5.88;;
23068;SDS011;11702;50.856;4.348;2022-10-31T10:19:01;16.83;;;6.38;;
23068;SDS011;11702;50.856;4.348;2022-10-31T10:21:41;15.27;;;6.15;;
23068;SDS011;11702;50.856;4.348;2022-10-31T10:29:58;12.70;;;6.78;;
23068;SDS011;11702;50.856;4.348;2022-10-31T10:32:55;17.65;;;5.85;;
23068;SDS011;11702;50.856;4.348;2022-10-31T10:35:31;12.70;;;6.97;;
23068;SDS011;11702;50.856;4.348;2022-10-31T10:40:34;12.93;;;7.90;;
23068;SDS011;11702;50.856;4.348;2022-10-31T10:45:52;9.57;;;7.13;;
23068;SDS011;11702;50.856;4.348;2022-10-31T10:51:57;12.65;;;7.47;;
23068;SDS011;11702;50.856;4.348;2022-10-31T10:55:18;19.95;;;9.35;;
23068;SDS011;11702;50.856;4.348;2022-10-31T11:02:52;24.52;;;9.27;;
23068;SDS011;11702;50.856;4.348;2022-10-31T11:05:39;21.08;;;8.07;;
23068;SDS011;11702;50.856;4.348;2022-10-31T11:08:10;18.48;;;8.00;;
23068;SDS011;11702;50.856;4.348;2022-10-31T11:10:36;15.02;;;7.75;;
23068;SDS011;11702;50.856;4.348;2022-10-31T11:18:46;17.00;;;7.80;;
23068;SDS011;11702;50.856;4.348;2022-10-31T11:21:23;16.38;;;7.47;;
23068;SDS011;11702;50.856;4.348;2022-10-31T11:24:01;18.63;;;7.40;;
23068;SDS011;11702;50.856;4.348;2022-10-31T11:26:28;14.35;;;7.47;;
23068;SDS011;11702;50.856;4.348;2022-10-31T11:28:57;19.33;;;7.45;;
23068;SDS011;11702;50.856;4.348;2022-10-31T11:31:24;14.67;;;8.07;;
23068;SDS011;11702;50.856;4.348;2022-10-31T11:33:53;17.10;;;7.65;;
23068;SDS011;11702;50.856;4.348;2022-10-31T11:36:29;14.43;;;7.85;;
23068;SDS011;11702;50.856;4.348;2022-10-31T11:38:59;16.00;;;8.32;;
23068;SDS011;11702;50.856;4.348;2022-10-31T11:43:58;20.85;;;11.88;;
23068;SDS011;11702;50.856;4.348;2022-10-31T11:46:46;29.17;;;16.35;;
23068;SDS011;11702;50.856;4.348;2022-10-31T11:49:30;23.80;;;12.73;;
23068;SDS011;11702;50.856;4.348;2022-10-31T11:52:03;20.75;;;11.85;;
23068;SDS011;11702;50.856;4.348;2022-10-31T11:54:49;23.17;;;11.57;;
23068;SDS011;11702;50.856;4.348;2022-10-31T11:57:27;14.30;;;8.35;;
23068;SDS011;11702;50.856;4.348;2022-10-31T11:59:59;16.08;;;9.27;;
23068;SDS011;11702;50.856;4.348;2022-10-31T12:02:28;23.83;;;10.35;;
23068;SDS011;11702;50.856;4.348;2022-10-31T12:05:05;15.98;;;9.10;;
23068;SDS011;11702;50.856;4.348;2022-10-31T12:07:36;19.30;;;8.48;;
23068;SDS011;11702;50.856;4.348;2022-10-31T12:10:04;21.83;;;9.20;;
23068;SDS011;11702;50.856;4.348;2022-10-31T12:12:41;17.35;;;8.38;;
23068;SDS011;11702;50.856;4.348;2022-10-31T12:15:19;20.50;;;8.73;;
23068;SDS011;11702;50.856;4.348;2022-10-31T12:21:11;18.80;;;8.35;;
23068;SDS011;11702;50.856;4.348;2022-10-31T12:40:53;22.63;;;8.00;;
23068;SDS011;11702;50.856;4.348;2022-10-31T12:53:47;16.52;;;7.07;;
23068;SDS011;11702;50.856;4.348;2022-10-31T13:01:59;15.70;;;6.90;;
23068;SDS011;11702;50.856;4.348;2022-10-31T13:04:54;11.32;;;6.47;;
23068;SDS011;11702;50.856;4.348;2022-10-31T13:07:42;26.30;;;7.45;;
23068;SDS011;11702;50.856;4.348;2022-10-31T13:10:16;15.95;;;6.50;;
23068;SDS011;11702;50.856;4.348;2022-10-31T13:12:57;15.10;;;7.18;;
23068;SDS011;11702;50.856;4.348;2022-10-31T13:15:28;12.52;;;6.32;;
23068;SDS011;11702;50.856;4.348;2022-10-31T13:18:01;20.77;;;8.35;;
23068;SDS011;11702;50.856;4.348;2022-10-31T13:20:37;15.40;;;7.25;;
23068;SDS011;11702;50.856;4.348;2022-10-31T13:23:10;13.48;;;6.55;;
23068;SDS011;11702;50.856;4.348;2022-10-31T13:25:58;14.40;;;6.75;;
23068;SDS011;11702;50.856;4.348;2022-10-31T13:28:40;15.88;;;5.93;;
23068;SDS011;11702;50.856;4.348;2022-10-31T13:31:08;19.63;;;6.45;;
23068;SDS011;11702;50.856;4.348;2022-10-31T13:33:45;15.68;;;7.15;;
23068;SDS011;11702;50.856;4.348;2022-10-31T13:36:24;13.95;;;6.00;;
23068;SDS011;11702;50.856;4.348;2022-10-31T13:41:44;19.50;;;7.50;;
23068;SDS011;11702;50.856;4.348;2022-10-31T13:44:23;18.92;;;7.35;;
23068;SDS011;11702;50.856;4.348;2022-10-31T13:46:50;16.50;;;6.47;;
23068;SDS011;11702;50.856;4.348;2022-10-31T13:51:49;16.85;;;6.95;;
23068;SDS011;11702;50.856;4.348;2022-10-31T13:56:51;13.70;;;6.57;;
23068;SDS011;11702;50.856;4.348;2022-10-31T13:59:19;15.23;;;6.77;;
23068;SDS011;11702;50.856;4.348;2022-10-31T14:01:51;17.25;;;7.88;;
23068;SDS011;11702;50.856;4.348;2022-10-31T14:04:21;18.23;;;6.57;;
23068;SDS011;11702;50.856;4.348;2022-10-31T14:06:57;14.23;;;7.40;;
23068;SDS011;11702;50.856;4.348;2022-10-31T14:12:03;17.73;;;6.88;;
23068;SDS011;11702;50.856;4.348;2022-10-31T14:14:33;15.98;;;6.80;;
23068;SDS011;11702;50.856;4.348;2022-10-31T14:17:16;14.68;;;6.80;;
23068;SDS011;11702;50.856;4.348;2022-10-31T14:19:58;12.60;;;6.55;;
23068;SDS011;11702;50.856;4.348;2022-10-31T14:22:29;15.45;;;6.63;;
23068;SDS011;11702;50.856;4.348;2022-10-31T14:24:58;19.52;;;6.45;;
23068;SDS011;11702;50.856;4.348;2022-10-31T14:29:53;15.25;;;6.93;;
23068;SDS011;11702;50.856;4.348;2022-10-31T14:32:25;16.98;;;6.63;;
23068;SDS011;11702;50.856;4.348;2022-10-31T14:45:25;16.00;;;5.78;;
23068;SDS011;11702;50.856;4.348;2022-10-31T14:55:53;13.13;;;5.05;;
23068;SDS011;11702;50.856;4.348;2022-10-31T14:58:21;10.70;;;4.60;;
23068;SDS011;11702;50.856;4.348;2022-10-31T15:01:02;16.00;;;4.95;;
23068;SDS011;11702;50.856;4.348;2022-10-31T15:03:33;27.75;;;15.15;;
23068;SDS011;11702;50.856;4.348;2022-10-31T15:06:03;20.15;;;10.25;;
23068;SDS011;11702;50.856;4.348;2022-10-31T15:08:38;20.58;;;6.05;;
23068;SDS011;11702;50.856;4.348;2022-10-31T15:11:09;16.73;;;6.00;;
23068;SDS011;11702;50.856;4.348;2022-10-31T15:13:50;27.42;;;9.45;;
23068;SDS011;11702;50.856;4.348;2022-10-31T15:16:22;18.60;;;8.40;;
23068;SDS011;11702;50.856;4.348;2022-10-31T15:19:00;14.10;;;5.97;;
23068;SDS011;11702;50.856;4.348;2022-10-31T15:21:29;19.05;;;7.82;;
23068;SDS011;11702;50.856;4.348;2022-10-31T15:23:55;14.85;;;5.93;;
23068;SDS011;11702;50.856;4.348;2022-10-31T15:26:24;19.48;;;6.30;;
23068;SDS011;11702;50.856;4.348;2022-10-31T15:29:03;13.55;;;6.65;;
23068;SDS011;11702;50.856;4.348;2022-10-31T15:31:30;15.40;;;6.32;;
23068;SDS011;11702;50.856;4.348;2022-10-31T15:34:11;16.52;;;6.88;;
23068;SDS011;11702;50.856;4.348;2022-10-31T15:36:41;16.85;;;8.10;;
23068;SDS011;11702;50.856;4.348;2022-10-31T15:39:10;16.95;;;7.18;;
23068;SDS011;11702;50.856;4.348;2022-10-31T15:41:54;16.40;;;6.88;;
23068;SDS011;11702;50.856;4.348;2022-10-31T15:44:36;16.85;;;6.82;;
23068;SDS011;11702;50.856;4.348;2022-10-31T15:47:06;19.80;;;7.88;;
23068;SDS011;11702;50.856;4.348;2022-10-31T15:49:49;15.38;;;7.38;;
23068;SDS011;11702;50.856;4.348;2022-10-31T15:57:33;17.23;;;8.38;;
23068;SDS011;11702;50.856;4.348;2022-10-31T16:00:20;16.60;;;8.25;;
23068;SDS011;11702;50.856;4.348;2022-10-31T16:02:49;17.45;;;8.23;;
23068;SDS011;11702;50.856;4.348;2022-10-31T16:05:16;13.85;;;7.57;;
23068;SDS011;11702;50.856;4.348;2022-10-31T16:07:50;14.82;;;7.97;;
23068;SDS011;11702;50.856;4.348;2022-10-31T16:10:25;21.55;;;8.32;;
23068;SDS011;11702;50.856;4.348;2022-10-31T16:12:51;18.38;;;9.05;;
23068;SDS011;11702;50.856;4.348;2022-10-31T16:15:19;20.15;;;8.48;;
23068;SDS011;11702;50.856;4.348;2022-10-31T16:17:49;15.35;;;8.50;;
23068;SDS011;11702;50.856;4.348;2022-10-31T16:20:20;24.77;;;11.32;;
23068;SDS011;11702;50.856;4.348;2022-10-31T16:22:48;19.25;;;10.13;;
23068;SDS011;11702;50.856;4.348;2022-10-31T16:25:17;18.58;;;8.48;;
23068;SDS011;11702;50.856;4.348;2022-10-31T16:28:03;22.63;;;9.45;;
23068;SDS011;11702;50.856;4.348;2022-10-31T16:30:38;19.15;;;9.95;;
23068;SDS011;11702;50.856;4.348;2022-10-31T16:35:49;19.27;;;9.20;;
23068;SDS011;11702;50.856;4.348;2022-10-31T16:38:15;19.98;;;9.70;;
23068;SDS011;11702;50.856;4.348;2022-10-31T16:40:41;17.55;;;8.55;;
23068;SDS011;11702;50.856;4.348;2022-10-31T16:43:12;14.55;;;8.25;;
23068;SDS011;11702;50.856;4.348;2022-10-31T16:45:57;29.38;;;10.00;;
23068;SDS011;11702;50.856;4.348;2022-10-31T16:48:23;18.10;;;9.20;;
23068;SDS011;11702;50.856;4.348;2022-10-31T16:50:51;19.75;;;9.15;;
23068;SDS011;11702;50.856;4.348;2022-10-31T16:53:18;26.25;;;8.05;;
23068;SDS011;11702;50.856;4.348;2022-10-31T16:55:44;28.13;;;8.40;;
23068;SDS011;11702;50.856;4.348;2022-10-31T16:58:15;16.05;;;7.82;;
23068;SDS011;11702;50.856;4.348;2022-10-31T17:00:43;15.63;;;8.15;;
23068;SDS011;11702;50.856;4.348;2022-10-31T17:03:09;13.95;;;7.60;;
23068;SDS011;11702;50.856;4.348;2022-10-31T17:05:35;16.48;;;7.28;;
23068;SDS011;11702;50.856;4.348;2022-10-31T17:08:02;14.45;;;6.72;;
23068;SDS011;11702;50.856;4.348;2022-10-31T17:10:28;13.48;;;6.65;;
23068;SDS011;11702;50.856;4.348;2022-10-31T17:12:54;19.45;;;7.22;;
23068;SDS011;11702;50.856;4.348;2022-10-31T17:15:25;17.00;;;6.45;;
23068;SDS011;11702;50.856;4.348;2022-10-31T17:17:52;14.82;;;6.50;;
23068;SDS011;11702;50.856;4.348;2022-10-31T17:22:44;12.48;;;5.95;;
23068;SDS011;11702;50.856;4.348;2022-10-31T17:25:14;12.77;;;5.53;;
23068;SDS011;11702;50.856;4.348;2022-10-31T17:27:47;13.05;;;5.72;;
23068;SDS011;11702;50.856;4.348;2022-10-31T17:30:13;17.70;;;5.88;;